createdAt,value
2018-09-17T00:00:11.646Z,16.23
2018-09-17T00:02:41.438Z,13.47
2018-09-17T00:05:11.151Z,12.27
2018-09-17T00:07:40.894Z,14.83
2018-09-17T00:10:10.635Z,11.87
2018-09-17T00:12:40.290Z,19.80
2018-09-17T00:15:14.239Z,15.90
2018-09-17T00:17:43.906Z,12.67
2018-09-17T00:20:13.844Z,13.10
2018-09-17T00:22:45.755Z,13.87
2018-09-17T00:25:15.455Z,12.57
2018-09-17T00:27:45.166Z,12.93
2018-09-17T00:30:18.834Z,14.57
2018-09-17T00:32:48.624Z,11.90
2018-09-17T00:35:18.370Z,14.03
2018-09-17T00:37:48.038Z,12.87
2018-09-17T00:40:21.223Z,11.23
2018-09-17T00:42:50.866Z,13.57
2018-09-17T00:45:20.510Z,14.23
2018-09-17T00:47:50.126Z,14.90
2018-09-17T00:50:19.849Z,14.80
2018-09-17T00:52:49.565Z,11.93
2018-09-17T00:55:19.192Z,11.60
2018-09-17T00:57:48.842Z,14.43
2018-09-17T01:00:18.528Z,14.90
2018-09-17T01:02:48.306Z,14.20
2018-09-17T01:05:30.279Z,12.80
2018-09-17T01:07:59.879Z,15.43
2018-09-17T01:10:29.577Z,16.37
2018-09-17T01:12:59.274Z,14.47
2018-09-17T01:15:28.934Z,14.57
2018-09-17T01:17:58.672Z,14.20
2018-09-17T01:20:28.413Z,16.27
2018-09-17T01:22:58.142Z,15.93
2018-09-17T01:25:27.931Z,17.13
2018-09-17T01:31:08.995Z,15.50
2018-09-17T01:33:38.642Z,19.27
2018-09-17T01:36:08.533Z,17.13
2018-09-17T01:38:43.382Z,16.90
2018-09-17T01:41:13.094Z,17.57
2018-09-17T01:43:42.700Z,16.33
2018-09-17T01:46:23.474Z,16.57
2018-09-17T01:48:53.139Z,15.07
2018-09-17T01:51:22.795Z,15.30
2018-09-17T01:53:52.574Z,15.63
2018-09-17T01:56:34.241Z,15.47
2018-09-17T01:59:04.038Z,16.60
2018-09-17T02:01:33.699Z,15.77
2018-09-17T02:04:03.378Z,19.97
2018-09-17T02:06:33.075Z,17.30
2018-09-17T02:09:02.871Z,21.17
2018-09-17T02:11:33.206Z,18.13
2018-09-17T02:14:10.993Z,18.67
2018-09-17T02:16:40.653Z,15.97
2018-09-17T02:19:10.434Z,18.00
2018-09-17T02:21:40.179Z,14.73
2018-09-17T02:24:09.907Z,12.07
2018-09-17T02:26:40.019Z,14.03
2018-09-17T02:29:23.044Z,14.97
2018-09-17T02:31:52.730Z,18.30
2018-09-17T02:34:22.498Z,18.83
2018-09-17T02:36:52.318Z,17.47
2018-09-17T02:39:24.079Z,16.87
2018-09-17T02:41:53.792Z,15.87
2018-09-17T02:44:23.559Z,15.77
2018-09-17T02:46:53.238Z,16.40
2018-09-17T02:49:22.999Z,20.43
2018-09-17T02:51:52.720Z,16.97
2018-09-17T02:54:22.491Z,17.73
2018-09-17T02:56:52.142Z,17.40
2018-09-17T02:59:21.819Z,19.13
2018-09-17T03:01:51.577Z,17.63
2018-09-17T03:04:21.258Z,19.20
2018-09-17T03:06:51.069Z,19.37
2018-09-17T03:09:20.695Z,15.40
2018-09-17T03:11:50.395Z,15.20
2018-09-17T03:14:27.892Z,15.13
2018-09-17T03:17:16.143Z,17.13
2018-09-17T03:19:46.547Z,18.40
2018-09-17T03:22:30.435Z,19.17
2018-09-17T03:25:00.107Z,18.77
2018-09-17T03:27:29.810Z,20.77
2018-09-17T03:29:59.532Z,19.70
2018-09-17T03:32:29.267Z,18.33
2018-09-17T03:34:58.894Z,18.63
2018-09-17T03:37:29.587Z,18.43
2018-09-17T03:40:01.156Z,22.23
2018-09-17T03:42:30.907Z,18.33
2018-09-17T03:45:00.618Z,19.43
2018-09-17T03:47:30.414Z,22.97
2018-09-17T03:50:00.126Z,25.33
2018-09-17T03:52:29.887Z,27.00
2018-09-17T03:54:59.554Z,24.67
2018-09-17T03:57:29.415Z,24.90
2018-09-17T03:59:59.126Z,25.73
2018-09-17T04:02:29.067Z,21.30
2018-09-17T04:04:58.744Z,19.10
2018-09-17T04:07:28.538Z,21.20
2018-09-17T04:09:58.278Z,23.90
2018-09-17T04:12:28.130Z,21.60
2018-09-17T04:14:57.787Z,22.20
2018-09-17T04:17:27.537Z,22.10
2018-09-17T04:19:57.511Z,21.70
2018-09-17T04:22:27.290Z,23.47
2018-09-17T04:24:57.098Z,22.43
2018-09-17T04:27:26.795Z,18.93
2018-09-17T04:29:56.746Z,20.53
2018-09-17T04:32:26.548Z,20.67
2018-09-17T04:34:56.281Z,22.77
2018-09-17T04:37:25.977Z,19.20
2018-09-17T04:39:55.775Z,19.53
2018-09-17T04:42:25.488Z,19.63
2018-09-17T04:44:55.374Z,18.40
2018-09-17T04:47:25.290Z,22.17
2018-09-17T04:49:55.344Z,20.63
2018-09-17T04:52:26.703Z,23.63
2018-09-17T04:54:56.822Z,20.27
2018-09-17T04:57:36.470Z,20.33
2018-09-17T05:00:06.702Z,19.37
2018-09-17T05:02:36.362Z,20.23
2018-09-17T05:05:06.398Z,24.37
2018-09-17T05:07:36.268Z,21.47
2018-09-17T05:10:06.716Z,22.00
2018-09-17T05:12:36.682Z,25.23
2018-09-17T05:15:07.168Z,25.87
2018-09-17T05:21:02.610Z,31.80
2018-09-17T05:23:32.411Z,27.33
2018-09-17T05:26:02.135Z,30.73
2018-09-17T05:28:45.575Z,36.90
2018-09-17T05:31:15.163Z,28.67
2018-09-17T05:33:44.786Z,26.40
2018-09-17T05:36:24.250Z,31.43
2018-09-17T05:38:53.936Z,39.17
2018-09-17T05:41:29.927Z,27.07
2018-09-17T05:43:59.642Z,32.13
2018-09-17T05:46:29.366Z,42.40
2018-09-17T05:48:59.103Z,30.97
2018-09-17T05:51:39.535Z,61.13
2018-09-17T05:54:09.317Z,66.30
2018-09-17T05:56:39.037Z,53.80
2018-09-17T05:59:08.741Z,38.07
2018-09-17T06:01:38.403Z,63.43
2018-09-17T06:04:08.222Z,52.93
2018-09-17T06:06:37.975Z,49.07
2018-09-17T06:09:11.761Z,35.67
2018-09-17T06:11:41.470Z,44.60
2018-09-17T06:14:11.234Z,35.17
2018-09-17T06:16:40.982Z,36.43
2018-09-17T06:19:10.590Z,84.77
2018-09-17T06:21:40.279Z,90.10
2018-09-17T06:24:10.213Z,90.33
2018-09-17T06:26:39.976Z,65.60
2018-09-17T06:29:09.697Z,57.97
2018-09-17T06:31:39.418Z,60.27
2018-09-17T06:34:09.534Z,51.30
2018-09-17T06:36:39.247Z,39.07
2018-09-17T06:39:10.184Z,52.83
2018-09-17T06:41:40.704Z,54.73
2018-09-17T06:44:10.385Z,49.43
2018-09-17T06:46:40.127Z,46.93
2018-09-17T06:49:09.842Z,29.80
2018-09-17T06:51:39.466Z,46.73
2018-09-17T06:54:09.158Z,36.53
2018-09-17T06:56:38.820Z,27.13
2018-09-17T06:59:08.522Z,35.83
2018-09-17T07:01:38.196Z,62.63
2018-09-17T07:04:08.122Z,39.13
2018-09-17T07:06:37.767Z,29.90
2018-09-17T07:09:11.187Z,27.87
2018-09-17T07:11:41.074Z,31.30
2018-09-17T07:14:11.163Z,32.77
2018-09-17T07:16:40.847Z,29.57
2018-09-17T07:19:10.497Z,31.07
2018-09-17T07:21:40.251Z,27.70
2018-09-17T07:24:09.943Z,30.90
2018-09-17T07:26:39.614Z,26.60
2018-09-17T07:29:09.314Z,23.57
2018-09-17T07:31:38.997Z,28.87
2018-09-17T07:34:08.678Z,26.27
2018-09-17T07:36:51.298Z,30.37
2018-09-17T07:39:20.897Z,26.83
2018-09-17T07:41:50.702Z,28.10
2018-09-17T07:44:20.339Z,28.90
2018-09-17T07:46:50.423Z,27.23
2018-09-17T07:49:20.114Z,23.90
2018-09-17T07:51:49.972Z,25.10
2018-09-17T07:54:19.689Z,22.47
2018-09-17T07:56:49.388Z,24.83
2018-09-17T07:59:19.142Z,24.70
2018-09-17T08:01:48.723Z,23.07
2018-09-17T08:04:18.334Z,25.83
2018-09-17T08:06:47.944Z,26.77
2018-09-17T08:09:17.614Z,25.47
2018-09-17T08:11:47.287Z,23.13
2018-09-17T08:14:16.998Z,21.53
2018-09-17T08:16:46.706Z,24.53
2018-09-17T08:19:16.390Z,23.40
2018-09-17T08:21:46.231Z,24.47
2018-09-17T08:24:15.879Z,24.33
2018-09-17T08:26:45.546Z,24.33
2018-09-17T08:29:15.283Z,27.43
2018-09-17T08:31:45.004Z,25.97
2018-09-17T08:34:14.672Z,26.50
2018-09-17T08:36:44.370Z,23.23
2018-09-17T08:39:14.901Z,24.13
2018-09-17T08:41:44.573Z,23.93
2018-09-17T08:44:14.272Z,23.90
2018-09-17T08:46:44.040Z,24.07
2018-09-17T08:49:13.664Z,21.85
2018-09-17T08:51:43.489Z,24.72
2018-09-17T08:54:13.210Z,22.62
2018-09-17T08:56:50.014Z,24.95
2018-09-17T08:59:25.473Z,24.75
2018-09-17T09:02:00.075Z,26.17
2018-09-17T09:04:35.236Z,25.85
2018-09-17T09:07:12.202Z,24.87
2018-09-17T09:09:41.924Z,25.95
2018-09-17T09:12:16.738Z,23.30
2018-09-17T09:14:46.491Z,25.82
2018-09-17T09:17:16.155Z,22.80
2018-09-17T09:19:45.870Z,24.82
2018-09-17T09:22:15.506Z,22.25
2018-09-17T09:24:45.190Z,22.02
2018-09-17T09:27:14.902Z,25.25
2018-09-17T09:29:44.622Z,19.77
2018-09-17T09:32:14.285Z,22.13
2018-09-17T09:34:43.935Z,18.77
2018-09-17T09:37:13.596Z,21.23
2018-09-17T09:39:43.270Z,17.20
2018-09-17T09:42:12.965Z,18.32
2018-09-17T09:44:42.597Z,20.50
2018-09-17T09:47:12.559Z,17.90
2018-09-17T09:49:42.216Z,23.20
2018-09-17T09:52:12.212Z,16.73
2018-09-17T09:54:41.870Z,20.57
2018-09-17T09:57:11.641Z,16.57
2018-09-17T09:59:41.222Z,16.70
2018-09-17T10:02:16.171Z,14.70
2018-09-17T10:04:45.796Z,17.60
2018-09-17T10:07:15.439Z,20.95
2018-09-17T10:09:50.319Z,22.27
2018-09-17T10:12:25.116Z,14.65
2018-09-17T10:15:00.095Z,14.95
2018-09-17T10:17:34.883Z,15.80
2018-09-17T10:20:04.599Z,13.45
2018-09-17T10:22:34.285Z,19.30
2018-09-17T10:25:04.046Z,13.48
2018-09-17T10:27:33.757Z,14.63
2018-09-17T10:30:03.463Z,13.18
2018-09-17T10:32:33.139Z,12.37
2018-09-17T10:35:02.873Z,15.10
2018-09-17T10:37:32.558Z,12.75
2018-09-17T10:40:02.286Z,16.45
2018-09-17T10:42:31.944Z,14.10
2018-09-17T10:45:01.688Z,14.30
2018-09-17T10:47:31.343Z,14.90
2018-09-17T10:50:01.126Z,12.03
2018-09-17T10:52:30.817Z,11.75
2018-09-17T10:55:00.551Z,11.88
2018-09-17T10:57:30.240Z,11.43
2018-09-17T10:59:59.950Z,10.65
2018-09-17T11:02:29.863Z,10.20
2018-09-17T11:04:59.519Z,10.05
2018-09-17T11:07:29.263Z,13.40
2018-09-17T11:09:58.970Z,9.88
2018-09-17T11:12:28.646Z,11.20
2018-09-17T11:14:58.246Z,9.08
2018-09-17T11:17:27.989Z,9.35
2018-09-17T11:19:57.674Z,8.63
2018-09-17T11:22:27.414Z,10.23
2018-09-17T11:24:57.054Z,9.45
2018-09-17T11:27:26.746Z,9.88
2018-09-17T11:29:56.484Z,9.88
2018-09-17T11:32:26.202Z,10.53
2018-09-17T11:34:55.866Z,8.93
2018-09-17T11:37:25.595Z,7.62
2018-09-17T11:39:55.350Z,7.53
2018-09-17T11:42:25.134Z,7.78
2018-09-17T11:44:54.830Z,6.80
2018-09-17T11:47:24.515Z,8.18
2018-09-17T11:49:54.218Z,9.58
2018-09-17T11:52:23.969Z,8.75
2018-09-17T11:54:53.635Z,10.25
2018-09-17T11:57:23.329Z,7.03
2018-09-17T11:59:52.987Z,6.65
2018-09-17T12:02:27.879Z,7.28
2018-09-17T12:05:03.490Z,6.97
2018-09-17T12:07:38.644Z,7.60
2018-09-17T12:10:09.030Z,6.83
2018-09-17T12:12:39.267Z,6.25
2018-09-17T12:15:09.461Z,6.30
2018-09-17T12:17:39.655Z,7.12
2018-09-17T12:20:09.423Z,7.08
2018-09-17T12:22:39.571Z,6.40
2018-09-17T12:25:09.180Z,6.95
2018-09-17T12:27:39.244Z,8.08
2018-09-17T12:30:08.908Z,5.85
2018-09-17T12:32:38.512Z,5.15
2018-09-17T12:35:08.227Z,7.03
2018-09-17T12:37:37.905Z,7.58
2018-09-17T12:40:07.555Z,7.08
2018-09-17T12:42:37.186Z,5.67
2018-09-17T12:45:07.031Z,5.92
2018-09-17T12:47:36.785Z,5.47
2018-09-17T12:50:06.550Z,5.45
2018-09-17T12:52:36.307Z,4.95
2018-09-17T12:55:06.010Z,5.35
2018-09-17T12:57:35.762Z,5.60
2018-09-17T13:00:06.562Z,4.50
2018-09-17T13:02:36.607Z,5.60
2018-09-17T13:05:06.383Z,4.53
2018-09-17T13:07:36.006Z,6.30
2018-09-17T13:10:06.023Z,4.65
2018-09-17T13:12:35.674Z,4.72
2018-09-17T13:15:05.916Z,4.22
2018-09-17T13:17:35.614Z,4.25
2018-09-17T13:20:05.326Z,5.17
2018-09-17T13:22:35.043Z,4.45
2018-09-17T13:25:04.782Z,3.75
2018-09-17T13:27:34.462Z,4.33
2018-09-17T13:30:04.299Z,3.70
2018-09-17T13:32:33.975Z,4.40
2018-09-17T13:35:03.643Z,4.10
2018-09-17T13:37:33.356Z,3.85
2018-09-17T13:40:03.075Z,5.10
2018-09-17T13:42:32.861Z,3.87
2018-09-17T13:45:02.466Z,3.30
2018-09-17T13:47:43.717Z,2.72
2018-09-17T13:50:36.228Z,4.35
2018-09-17T13:53:06.011Z,2.83
2018-09-17T13:55:35.659Z,3.42
2018-09-17T13:58:12.158Z,3.22
2018-09-17T14:00:42.131Z,3.75
2018-09-17T14:03:12.249Z,3.37
2018-09-17T14:05:41.930Z,3.62
2018-09-17T14:08:11.592Z,2.95
2018-09-17T14:10:41.326Z,2.83
2018-09-17T14:13:11.032Z,4.85
2018-09-17T14:15:44.749Z,3.42
2018-09-17T14:18:19.801Z,3.40
2018-09-17T14:21:03.213Z,3.17
2018-09-17T14:24:01.601Z,3.47
2018-09-17T14:26:33.257Z,3.60
2018-09-17T14:29:03.136Z,4.22
2018-09-17T14:31:39.051Z,6.53
2018-09-17T14:34:09.195Z,5.25
2018-09-17T14:36:38.902Z,4.75
2018-09-17T14:39:09.624Z,4.55
2018-09-17T14:41:39.780Z,5.58
2018-09-17T14:44:09.543Z,6.12
2018-09-17T14:46:39.174Z,4.55
2018-09-17T14:49:10.751Z,4.35
2018-09-17T14:51:40.710Z,4.80
2018-09-17T14:54:12.010Z,4.53
2018-09-17T14:56:42.883Z,7.03
2018-09-17T14:59:12.993Z,5.03
2018-09-17T15:01:42.814Z,4.45
2018-09-17T15:04:12.629Z,5.62
2018-09-17T15:06:42.270Z,5.65
2018-09-17T15:09:13.974Z,5.03
2018-09-17T15:11:43.748Z,6.60
2018-09-17T15:14:13.994Z,4.95
2018-09-17T15:16:44.458Z,4.30
2018-09-17T15:19:14.761Z,3.45
2018-09-17T15:21:44.963Z,3.17
2018-09-17T15:24:15.684Z,3.87
2018-09-17T15:26:45.337Z,3.08
2018-09-17T15:29:15.167Z,4.28
2018-09-17T15:31:44.973Z,4.12
2018-09-17T15:34:14.705Z,3.67
2018-09-17T15:36:44.877Z,4.70
2018-09-17T15:39:15.034Z,3.65
2018-09-17T15:41:44.685Z,4.55
2018-09-17T15:44:14.469Z,3.45
2018-09-17T15:46:44.039Z,3.62
2018-09-17T15:49:13.928Z,3.50
2018-09-17T15:51:44.573Z,4.92
2018-09-17T15:57:18.156Z,4.92
2018-09-17T15:59:47.966Z,4.90
2018-09-17T16:02:17.726Z,5.22
2018-09-17T16:04:47.450Z,6.70
2018-09-17T16:07:22.983Z,4.33
2018-09-17T16:09:52.589Z,5.30
2018-09-17T16:12:22.225Z,8.18
2018-09-17T16:14:51.957Z,4.70
2018-09-17T16:17:21.647Z,4.70
2018-09-17T16:19:51.345Z,4.75
2018-09-17T16:22:21.048Z,5.20
2018-09-17T16:24:50.799Z,4.17
2018-09-17T16:27:20.839Z,7.53
2018-09-17T16:29:50.538Z,4.90
2018-09-17T16:32:20.248Z,5.30
2018-09-17T16:34:50.013Z,4.92
2018-09-17T16:37:19.735Z,4.25
2018-09-17T16:39:49.543Z,4.55
2018-09-17T16:42:19.544Z,6.80
2018-09-17T16:44:49.533Z,4.70
2018-09-17T16:47:19.254Z,5.20
2018-09-17T16:49:49.276Z,7.60
2018-09-17T16:52:19.194Z,5.53
2018-09-17T16:54:49.153Z,6.55
2018-09-17T16:57:18.853Z,5.80
2018-09-17T16:59:48.658Z,5.28
2018-09-17T17:02:18.322Z,5.05
2018-09-17T17:04:48.056Z,6.65
2018-09-17T17:07:17.741Z,7.55
2018-09-17T17:09:47.811Z,5.40
2018-09-17T17:12:29.264Z,5.63
2018-09-17T17:14:58.910Z,5.17
2018-09-17T17:17:29.091Z,5.10
2018-09-17T17:19:58.890Z,5.97
2018-09-17T17:22:28.514Z,6.83
2018-09-17T17:25:18.374Z,6.87
2018-09-17T17:27:48.202Z,5.30
2018-09-17T17:30:30.971Z,4.47
2018-09-17T17:33:00.792Z,6.80
2018-09-17T17:35:30.596Z,7.10
2018-09-17T17:38:00.285Z,5.97
2018-09-17T17:40:40.632Z,7.47
2018-09-17T17:43:10.114Z,5.73
2018-09-17T17:45:39.867Z,9.57
2018-09-17T17:48:09.643Z,6.67
2018-09-17T17:50:39.744Z,7.83
2018-09-17T17:53:09.686Z,9.30
2018-09-17T17:55:39.622Z,10.70
2018-09-17T17:58:09.294Z,9.63
2018-09-17T18:00:39.674Z,8.97
2018-09-17T18:03:09.600Z,9.00
2018-09-17T18:05:39.406Z,12.27
2018-09-17T18:08:09.194Z,6.53
2018-09-17T18:10:39.010Z,8.50
2018-09-17T18:13:09.399Z,7.17
2018-09-17T18:15:40.590Z,9.83
2018-09-17T18:18:22.271Z,6.97
2018-09-17T18:20:52.202Z,6.80
2018-09-17T18:23:21.836Z,9.57
2018-09-17T18:25:52.574Z,7.40
2018-09-17T18:28:22.566Z,7.63
2018-09-17T18:30:53.012Z,10.70
2018-09-17T18:33:22.778Z,7.17
2018-09-17T18:35:52.499Z,8.27
2018-09-17T18:38:22.149Z,8.03
2018-09-17T18:40:51.887Z,7.93
2018-09-17T18:43:21.675Z,10.60
2018-09-17T18:45:51.386Z,12.33
2018-09-17T18:48:23.058Z,17.47
2018-09-17T18:50:52.766Z,22.33
2018-09-17T18:53:22.491Z,22.83
2018-09-17T18:55:54.707Z,24.07
2018-09-17T18:58:43.315Z,28.87
2018-09-17T19:01:12.941Z,9.97
2018-09-17T19:03:43.264Z,13.40
2018-09-17T19:06:23.507Z,10.90
2018-09-17T19:08:53.348Z,10.77
2018-09-17T19:11:23.616Z,10.53
2018-09-17T19:13:59.499Z,11.37
2018-09-17T19:16:34.490Z,8.67
2018-09-17T19:19:04.391Z,11.87
2018-09-17T19:21:39.862Z,12.97
2018-09-17T19:24:09.547Z,11.50
2018-09-17T19:26:39.234Z,17.07
2018-09-17T19:29:14.108Z,15.60
2018-09-17T19:31:43.851Z,13.63
2018-09-17T19:34:13.749Z,19.67
2018-09-17T19:37:00.906Z,20.60
2018-09-17T19:39:35.545Z,35.77
2018-09-17T19:42:05.242Z,30.70
2018-09-17T19:44:53.511Z,26.50
2018-09-17T19:47:23.282Z,23.57
2018-09-17T19:49:56.045Z,30.53
2018-09-17T19:52:28.273Z,30.53
2018-09-17T19:54:58.026Z,44.53
2018-09-17T19:57:32.812Z,44.47
2018-09-17T20:00:03.983Z,48.17
2018-09-17T20:02:33.755Z,47.37
2018-09-17T20:05:08.710Z,45.40
2018-09-17T20:07:38.959Z,43.60
2018-09-17T20:10:08.786Z,25.67
2018-09-17T20:12:41.191Z,18.63
2018-09-17T20:15:11.298Z,18.57
2018-09-17T20:17:41.078Z,19.43
2018-09-17T20:20:11.679Z,21.20
2018-09-17T20:22:44.898Z,18.53
2018-09-17T20:25:15.166Z,13.83
2018-09-17T20:27:47.466Z,13.20
2018-09-17T20:30:17.641Z,12.07
2018-09-17T20:32:47.561Z,10.40
2018-09-17T20:35:17.257Z,14.10
2018-09-17T20:37:47.437Z,14.53
2018-09-17T20:40:18.134Z,13.40
2018-09-17T20:42:58.603Z,15.97
2018-09-17T20:45:28.276Z,26.50
2018-09-17T20:47:58.053Z,32.13
2018-09-17T20:50:27.946Z,23.73
2018-09-17T20:52:57.742Z,17.23
2018-09-17T20:55:27.505Z,17.40
2018-09-17T20:57:57.198Z,20.07
2018-09-17T21:00:27.118Z,20.27
2018-09-17T21:02:57.038Z,27.30
2018-09-17T21:05:28.014Z,21.17
2018-09-17T21:07:58.087Z,13.70
2018-09-17T21:10:27.761Z,9.37
2018-09-17T21:12:57.526Z,9.43
2018-09-17T21:15:27.243Z,10.53
2018-09-17T21:17:56.998Z,7.13
2018-09-17T21:20:26.683Z,6.80
2018-09-17T21:22:57.108Z,9.33
2018-09-17T21:25:27.097Z,11.00
2018-09-17T21:31:15.122Z,8.30
2018-09-17T21:33:44.862Z,9.10
2018-09-17T21:36:14.758Z,9.77
2018-09-17T21:38:44.643Z,10.13
2018-09-17T21:41:14.381Z,8.67
2018-09-17T21:43:44.121Z,9.87
2018-09-17T21:46:13.788Z,10.03
2018-09-17T21:48:43.979Z,8.80
2018-09-17T21:51:13.732Z,9.30
2018-09-17T21:53:43.477Z,8.17
2018-09-17T21:56:14.207Z,8.63
2018-09-17T21:58:43.913Z,7.87
2018-09-17T22:01:17.759Z,8.17
2018-09-17T22:03:47.985Z,9.97
2018-09-17T22:06:17.582Z,10.43
2018-09-17T22:08:47.278Z,8.87
2018-09-17T22:11:16.939Z,11.20
2018-09-17T22:13:46.582Z,8.90
2018-09-17T22:16:16.182Z,10.10
2018-09-17T22:18:45.882Z,8.70
2018-09-17T22:21:15.602Z,10.37
2018-09-17T22:23:45.227Z,8.03
2018-09-17T22:26:14.908Z,11.37
2018-09-17T22:28:44.566Z,11.37
2018-09-17T22:31:14.230Z,10.03
2018-09-17T22:33:43.907Z,8.60
2018-09-17T22:36:27.007Z,9.57
2018-09-17T22:38:56.614Z,10.23
2018-09-17T22:41:26.359Z,9.73
2018-09-17T22:43:56.133Z,7.63
2018-09-17T22:46:26.087Z,6.87
2018-09-17T22:48:55.866Z,10.13
2018-09-17T22:51:25.518Z,8.20
2018-09-17T22:53:55.196Z,10.30
2018-09-17T22:56:24.851Z,8.13
2018-09-17T22:58:54.538Z,6.53
2018-09-17T23:01:24.247Z,8.63
2018-09-17T23:03:53.978Z,6.50
2018-09-17T23:06:23.644Z,7.97
2018-09-17T23:08:53.330Z,8.47
2018-09-17T23:11:31.222Z,6.90
2018-09-17T23:14:00.902Z,11.07
2018-09-17T23:16:30.560Z,10.10
2018-09-17T23:19:00.242Z,8.40
2018-09-17T23:21:29.899Z,10.03
2018-09-17T23:23:59.570Z,7.17
2018-09-17T23:26:29.433Z,8.13
2018-09-17T23:28:59.081Z,9.87
2018-09-17T23:31:28.774Z,6.83
2018-09-17T23:33:58.386Z,12.47
2018-09-17T23:36:28.031Z,7.90
2018-09-17T23:38:57.682Z,7.97
2018-09-17T23:41:27.383Z,8.93
2018-09-17T23:43:57.030Z,8.33
2018-09-17T23:46:26.754Z,10.27
2018-09-17T23:48:56.448Z,7.63
2018-09-17T23:51:26.023Z,8.47
2018-09-17T23:53:55.806Z,9.43
2018-09-17T23:56:25.454Z,8.83
2018-09-17T23:58:55.212Z,7.30
